sensor_id;sensor_type;location;lat;lon;timestamp;pressure;altitude;pressure_sealevel;temperature;humidity
19761;BME280;10039;42.632;23.408;2023-02-25T00:02:12;94429.47;;;7.54;71.53
19761;BME280;10039;42.632;23.408;2023-02-25T00:04:38;94422.22;;;7.35;71.45
19761;BME280;10039;42.632;23.408;2023-02-25T00:07:06;94430.28;;;7.28;71.86
19761;BME280;10039;42.632;23.408;2023-02-25T00:09:31;94406.66;;;7.11;71.93
19761;BME280;10039;42.632;23.408;2023-02-25T00:11:57;94421.84;;;7.33;71.78
19761;BME280;10039;42.632;23.408;2023-02-25T00:14:22;94424.69;;;7.46;71.66
19761;BME280;10039;42.632;23.408;2023-02-25T00:16:48;94423.16;;;7.48;71.03
19761;BME280;10039;42.632;23.408;2023-02-25T00:19:14;94394.28;;;7.27;71.14
19761;BME280;10039;42.632;23.408;2023-02-25T00:21:39;94410.53;;;7.29;71.82
19761;BME280;10039;42.632;23.408;2023-02-25T00:24:05;94422.88;;;7.16;71.96
19761;BME280;10039;42.632;23.408;2023-02-25T00:26:30;94408.22;;;7.08;72.35
19761;BME280;10039;42.632;23.408;2023-02-25T00:28:56;94385.09;;;7.09;72.86
19761;BME280;10039;42.632;23.408;2023-02-25T00:31:23;94411.22;;;6.84;74.80
19761;BME280;10039;42.632;23.408;2023-02-25T00:33:50;94404.47;;;6.79;75.13
19761;BME280;10039;42.632;23.408;2023-02-25T00:36:17;94411.31;;;7.03;74.74
19761;BME280;10039;42.632;23.408;2023-02-25T00:38:49;94405.41;;;7.19;74.43
19761;BME280;10039;42.632;23.408;2023-02-25T00:41:18;94403.63;;;7.35;73.75
19761;BME280;10039;42.632;23.408;2023-02-25T00:43:49;94388.56;;;7.29;73.75
19761;BME280;10039;42.632;23.408;2023-02-25T00:46:15;94396.56;;;7.25;73.04
19761;BME280;10039;42.632;23.408;2023-02-25T00:48:40;94389.03;;;7.47;72.73
19761;BME280;10039;42.632;23.408;2023-02-25T00:51:15;94380.59;;;7.52;72.96
19761;BME280;10039;42.632;23.408;2023-02-25T00:53:42;94376.00;;;7.56;72.04
19761;BME280;10039;42.632;23.408;2023-02-25T00:56:09;94379.97;;;7.44;71.92
19761;BME280;10039;42.632;23.408;2023-02-25T00:58:38;94371.09;;;7.31;72.33
19761;BME280;10039;42.632;23.408;2023-02-25T01:01:05;94368.78;;;7.33;72.18
19761;BME280;10039;42.632;23.408;2023-02-25T01:03:39;94356.59;;;7.13;73.08
19761;BME280;10039;42.632;23.408;2023-02-25T01:06:07;94359.06;;;7.23;72.67
19761;BME280;10039;42.632;23.408;2023-02-25T01:08:32;94365.31;;;7.36;72.29
19761;BME280;10039;42.632;23.408;2023-02-25T01:10:57;94343.41;;;7.32;71.96
19761;BME280;10039;42.632;23.408;2023-02-25T01:13:23;94352.13;;;7.52;71.37
19761;BME280;10039;42.632;23.408;2023-02-25T01:15:48;94325.25;;;7.50;71.19
19761;BME280;10039;42.632;23.408;2023-02-25T01:18:14;94349.66;;;7.42;70.95
19761;BME280;10039;42.632;23.408;2023-02-25T01:20:39;94342.25;;;7.33;71.66
19761;BME280;10039;42.632;23.408;2023-02-25T01:23:05;94350.31;;;7.26;71.38
19761;BME280;10039;42.632;23.408;2023-02-25T01:25:31;94349.28;;;7.20;71.91
19761;BME280;10039;42.632;23.408;2023-02-25T01:27:56;94355.72;;;7.19;72.33
19761;BME280;10039;42.632;23.408;2023-02-25T01:30:22;94326.19;;;7.17;71.67
19761;BME280;10039;42.632;23.408;2023-02-25T01:32:48;94346.97;;;7.22;72.27
19761;BME280;10039;42.632;23.408;2023-02-25T01:35:13;94332.53;;;7.23;72.42
19761;BME280;10039;42.632;23.408;2023-02-25T01:37:39;94330.81;;;7.36;72.20
19761;BME280;10039;42.632;23.408;2023-02-25T01:40:13;94331.41;;;7.47;72.27
19761;BME280;10039;42.632;23.408;2023-02-25T01:42:42;94303.13;;;7.37;72.14
19761;BME280;10039;42.632;23.408;2023-02-25T01:47:47;94322.31;;;7.45;71.83
19761;BME280;10039;42.632;23.408;2023-02-25T01:50:16;94341.16;;;7.50;71.55
19761;BME280;10039;42.632;23.408;2023-02-25T01:52:42;94337.72;;;7.53;71.18
19761;BME280;10039;42.632;23.408;2023-02-25T01:55:10;94325.06;;;7.41;71.10
19761;BME280;10039;42.632;23.408;2023-02-25T01:57:35;94332.06;;;7.51;71.58
19761;BME280;10039;42.632;23.408;2023-02-25T02:00:03;94339.56;;;7.56;71.17
19761;BME280;10039;42.632;23.408;2023-02-25T02:02:35;94288.75;;;7.35;70.94
19761;BME280;10039;42.632;23.408;2023-02-25T02:05:02;94329.13;;;7.46;71.27
19761;BME280;10039;42.632;23.408;2023-02-25T02:07:27;94326.16;;;7.63;71.03
19761;BME280;10039;42.632;23.408;2023-02-25T02:09:52;94323.00;;;7.49;70.88
19761;BME280;10039;42.632;23.408;2023-02-25T02:12:23;94326.19;;;7.40;71.24
19761;BME280;10039;42.632;23.408;2023-02-25T02:14:49;94331.81;;;7.23;72.33
19761;BME280;10039;42.632;23.408;2023-02-25T02:22:14;94319.44;;;7.36;71.90
19761;BME280;10039;42.632;23.408;2023-02-25T02:30:30;94291.69;;;7.40;71.17
19761;BME280;10039;42.632;23.408;2023-02-25T02:33:10;94298.34;;;7.29;71.52
19761;BME280;10039;42.632;23.408;2023-02-25T02:35:55;94297.06;;;7.37;71.21
19761;BME280;10039;42.632;23.408;2023-02-25T02:38:34;94273.25;;;7.33;71.75
19761;BME280;10039;42.632;23.408;2023-02-25T02:41:14;94265.63;;;7.35;72.41
19761;BME280;10039;42.632;23.408;2023-02-25T02:43:51;94259.56;;;7.15;72.94
19761;BME280;10039;42.632;23.408;2023-02-25T02:46:26;94280.94;;;7.05;75.14
19761;BME280;10039;42.632;23.408;2023-02-25T02:51:37;94284.09;;;7.19;74.45
19761;BME280;10039;42.632;23.408;2023-02-25T02:54:06;94271.00;;;7.32;74.31
19761;BME280;10039;42.632;23.408;2023-02-25T02:56:35;94263.44;;;7.30;73.76
19761;BME280;10039;42.632;23.408;2023-02-25T02:59:06;94264.81;;;7.38;73.62
19761;BME280;10039;42.632;23.408;2023-02-25T03:02:04;94259.50;;;7.38;73.55
19761;BME280;10039;42.632;23.408;2023-02-25T03:04:35;94244.41;;;7.35;72.48
19761;BME280;10039;42.632;23.408;2023-02-25T03:07:03;94249.16;;;7.44;72.39
19761;BME280;10039;42.632;23.408;2023-02-25T03:09:37;94230.84;;;7.30;72.06
19761;BME280;10039;42.632;23.408;2023-02-25T03:12:04;94251.00;;;7.47;71.75
19761;BME280;10039;42.632;23.408;2023-02-25T03:14:29;94257.72;;;7.51;71.95
19761;BME280;10039;42.632;23.408;2023-02-25T03:17:03;94253.09;;;7.55;71.82
19761;BME280;10039;42.632;23.408;2023-02-25T03:19:44;94258.94;;;7.27;73.13
19761;BME280;10039;42.632;23.408;2023-02-25T03:22:18;94245.41;;;7.22;73.28
19761;BME280;10039;42.632;23.408;2023-02-25T03:24:49;94254.75;;;7.30;72.98
19761;BME280;10039;42.632;23.408;2023-02-25T03:27:27;94246.59;;;7.40;72.56
19761;BME280;10039;42.632;23.408;2023-02-25T03:30:07;94248.59;;;7.52;72.05
19761;BME280;10039;42.632;23.408;2023-02-25T03:32:39;94241.28;;;7.40;72.32
19761;BME280;10039;42.632;23.408;2023-02-25T03:35:16;94255.28;;;7.41;72.08
19761;BME280;10039;42.632;23.408;2023-02-25T03:37:50;94247.63;;;7.23;72.20
19761;BME280;10039;42.632;23.408;2023-02-25T03:40:18;94249.56;;;7.42;72.25
19761;BME280;10039;42.632;23.408;2023-02-25T03:43:19;94247.28;;;7.44;71.90
19761;BME280;10039;42.632;23.408;2023-02-25T03:45:46;94269.66;;;7.43;71.46
19761;BME280;10039;42.632;23.408;2023-02-25T03:48:14;94276.94;;;7.39;72.12
19761;BME280;10039;42.632;23.408;2023-02-25T03:50:52;94253.75;;;7.20;71.94
19761;BME280;10039;42.632;23.408;2023-02-25T03:53:18;94269.13;;;7.09;72.57
19761;BME280;10039;42.632;23.408;2023-02-25T03:55:45;94236.59;;;7.05;72.58
19761;BME280;10039;42.632;23.408;2023-02-25T03:58:11;94252.75;;;7.14;72.00
19761;BME280;10039;42.632;23.408;2023-02-25T04:00:38;94261.38;;;7.18;72.32
19761;BME280;10039;42.632;23.408;2023-02-25T04:03:05;94237.56;;;7.15;72.36
19761;BME280;10039;42.632;23.408;2023-02-25T04:05:30;94220.69;;;7.05;74.04
19761;BME280;10039;42.632;23.408;2023-02-25T04:07:57;94229.47;;;7.02;73.55
19761;BME280;10039;42.632;23.408;2023-02-25T04:10:23;94224.63;;;6.97;73.75
19761;BME280;10039;42.632;23.408;2023-02-25T04:12:49;94231.22;;;7.09;73.17
19761;BME280;10039;42.632;23.408;2023-02-25T04:15:18;94226.00;;;7.05;73.46
19761;BME280;10039;42.632;23.408;2023-02-25T04:17:44;94232.09;;;7.02;73.33
19761;BME280;10039;42.632;23.408;2023-02-25T04:20:11;94244.34;;;6.96;73.31
19761;BME280;10039;42.632;23.408;2023-02-25T04:22:38;94246.59;;;6.98;73.33
19761;BME280;10039;42.632;23.408;2023-02-25T04:25:04;94255.69;;;6.97;73.28
19761;BME280;10039;42.632;23.408;2023-02-25T04:27:29;94264.22;;;7.08;73.10
19761;BME280;10039;42.632;23.408;2023-02-25T04:29:57;94258.06;;;7.14;72.27
19761;BME280;10039;42.632;23.408;2023-02-25T04:32:23;94256.22;;;7.11;72.22
19761;BME280;10039;42.632;23.408;2023-02-25T04:34:49;94244.16;;;7.07;72.05
19761;BME280;10039;42.632;23.408;2023-02-25T04:37:14;94235.63;;;6.96;73.69
19761;BME280;10039;42.632;23.408;2023-02-25T04:39:41;94222.53;;;6.85;73.70
19761;BME280;10039;42.632;23.408;2023-02-25T04:42:06;94224.38;;;6.88;73.38
19761;BME280;10039;42.632;23.408;2023-02-25T04:44:32;94203.50;;;6.90;73.21
19761;BME280;10039;42.632;23.408;2023-02-25T04:46:57;94215.38;;;7.05;73.03
19761;BME280;10039;42.632;23.408;2023-02-25T04:49:23;94207.88;;;7.00;72.57
19761;BME280;10039;42.632;23.408;2023-02-25T04:51:49;94213.13;;;7.04;72.04
19761;BME280;10039;42.632;23.408;2023-02-25T04:54:16;94210.53;;;7.00;72.37
19761;BME280;10039;42.632;23.408;2023-02-25T04:56:43;94209.84;;;6.96;72.56
19761;BME280;10039;42.632;23.408;2023-02-25T04:59:08;94202.94;;;7.02;72.86
19761;BME280;10039;42.632;23.408;2023-02-25T05:01:36;94185.94;;;7.00;72.51
19761;BME280;10039;42.632;23.408;2023-02-25T05:04:01;94190.94;;;6.94;72.32
19761;BME280;10039;42.632;23.408;2023-02-25T05:06:27;94172.50;;;6.87;72.57
19761;BME280;10039;42.632;23.408;2023-02-25T05:08:54;94178.03;;;6.96;72.31
19761;BME280;10039;42.632;23.408;2023-02-25T05:11:22;94171.53;;;7.01;71.84
19761;BME280;10039;42.632;23.408;2023-02-25T05:13:48;94165.53;;;6.97;72.41
19761;BME280;10039;42.632;23.408;2023-02-25T05:16:14;94172.69;;;7.00;72.01
19761;BME280;10039;42.632;23.408;2023-02-25T05:18:42;94169.72;;;6.94;72.16
19761;BME280;10039;42.632;23.408;2023-02-25T05:21:16;94174.34;;;6.90;72.46
19761;BME280;10039;42.632;23.408;2023-02-25T05:23:43;94163.66;;;6.74;73.11
19761;BME280;10039;42.632;23.408;2023-02-25T05:26:10;94129.25;;;6.52;73.16
19761;BME280;10039;42.632;23.408;2023-02-25T05:28:36;94146.91;;;6.58;72.52
19761;BME280;10039;42.632;23.408;2023-02-25T05:31:06;94140.88;;;6.35;72.80
19761;BME280;10039;42.632;23.408;2023-02-25T05:33:33;94159.97;;;6.23;73.57
19761;BME280;10039;42.632;23.408;2023-02-25T05:35:58;94198.81;;;6.06;75.15
19761;BME280;10039;42.632;23.408;2023-02-25T05:38:23;94185.34;;;5.97;75.00
19761;BME280;10039;42.632;23.408;2023-02-25T05:40:50;94188.94;;;6.10;74.98
19761;BME280;10039;42.632;23.408;2023-02-25T05:43:15;94232.00;;;6.41;74.62
19761;BME280;10039;42.632;23.408;2023-02-25T05:45:41;94225.78;;;6.51;73.99
19761;BME280;10039;42.632;23.408;2023-02-25T05:48:06;94206.38;;;6.34;73.14
19761;BME280;10039;42.632;23.408;2023-02-25T05:50:31;94273.50;;;6.73;73.42
19761;BME280;10039;42.632;23.408;2023-02-25T05:52:59;94228.66;;;6.60;72.50
19761;BME280;10039;42.632;23.408;2023-02-25T05:55:24;94245.59;;;6.65;72.69
19761;BME280;10039;42.632;23.408;2023-02-25T05:57:51;94268.44;;;6.82;72.83
19761;BME280;10039;42.632;23.408;2023-02-25T06:00:17;94257.44;;;6.84;73.31
19761;BME280;10039;42.632;23.408;2023-02-25T06:02:46;94295.63;;;6.86;74.16
19761;BME280;10039;42.632;23.408;2023-02-25T06:05:11;94265.91;;;6.98;73.24
19761;BME280;10039;42.632;23.408;2023-02-25T06:07:37;94273.78;;;7.02;74.03
19761;BME280;10039;42.632;23.408;2023-02-25T06:10:03;94294.78;;;6.93;73.89
19761;BME280;10039;42.632;23.408;2023-02-25T06:12:30;94290.13;;;7.00;73.95
19761;BME280;10039;42.632;23.408;2023-02-25T06:14:56;94294.97;;;7.05;74.30
19761;BME280;10039;42.632;23.408;2023-02-25T06:17:22;94281.63;;;7.09;73.85
19761;BME280;10039;42.632;23.408;2023-02-25T06:19:51;94271.94;;;7.22;73.89
19761;BME280;10039;42.632;23.408;2023-02-25T06:22:21;94270.16;;;7.15;73.58
19761;BME280;10039;42.632;23.408;2023-02-25T06:24:47;94265.56;;;7.39;73.49
19761;BME280;10039;42.632;23.408;2023-02-25T06:27:13;94253.38;;;7.41;73.04
19761;BME280;10039;42.632;23.408;2023-02-25T06:29:38;94264.63;;;7.49;72.90
19761;BME280;10039;42.632;23.408;2023-02-25T06:32:12;94256.22;;;7.50;72.93
19761;BME280;10039;42.632;23.408;2023-02-25T06:34:38;94253.31;;;7.45;73.61
19761;BME280;10039;42.632;23.408;2023-02-25T06:37:04;94272.66;;;7.22;74.60
19761;BME280;10039;42.632;23.408;2023-02-25T06:39:29;94255.91;;;7.29;74.80
19761;BME280;10039;42.632;23.408;2023-02-25T06:41:55;94236.56;;;7.28;74.56
19761;BME280;10039;42.632;23.408;2023-02-25T06:44:20;94252.81;;;7.30;75.02
19761;BME280;10039;42.632;23.408;2023-02-25T06:46:49;94257.59;;;7.58;74.07
19761;BME280;10039;42.632;23.408;2023-02-25T06:49:16;94251.34;;;7.68;73.46
19761;BME280;10039;42.632;23.408;2023-02-25T06:51:41;94267.75;;;7.63;73.70
19761;BME280;10039;42.632;23.408;2023-02-25T06:54:07;94238.28;;;7.77;73.75
19761;BME280;10039;42.632;23.408;2023-02-25T06:56:32;94247.22;;;7.83;73.28
19761;BME280;10039;42.632;23.408;2023-02-25T06:58:58;94221.25;;;7.74;73.85
19761;BME280;10039;42.632;23.408;2023-02-25T07:01:24;94215.22;;;7.90;74.00
19761;BME280;10039;42.632;23.408;2023-02-25T07:03:50;94211.94;;;8.02;74.02
19761;BME280;10039;42.632;23.408;2023-02-25T07:06:16;94236.19;;;8.04;74.30
19761;BME280;10039;42.632;23.408;2023-02-25T07:08:42;94208.59;;;8.17;73.90
19761;BME280;10039;42.632;23.408;2023-02-25T07:13:38;94201.56;;;8.43;73.46
19761;BME280;10039;42.632;23.408;2023-02-25T07:16:04;94179.44;;;8.62;72.54
19761;BME280;10039;42.632;23.408;2023-02-25T07:18:29;94171.63;;;8.71;71.80
19761;BME280;10039;42.632;23.408;2023-02-25T07:20:56;94159.94;;;8.81;71.25
19761;BME280;10039;42.632;23.408;2023-02-25T07:23:22;94162.50;;;9.00;70.38
19761;BME280;10039;42.632;23.408;2023-02-25T07:25:48;94163.63;;;9.15;69.85
19761;BME280;10039;42.632;23.408;2023-02-25T07:28:14;94165.69;;;9.23;69.86
19761;BME280;10039;42.632;23.408;2023-02-25T07:30:40;94148.38;;;9.15;69.17
19761;BME280;10039;42.632;23.408;2023-02-25T07:33:06;94155.94;;;9.45;69.13
19761;BME280;10039;42.632;23.408;2023-02-25T07:35:32;94146.47;;;9.57;68.81
19761;BME280;10039;42.632;23.408;2023-02-25T07:37:58;94116.00;;;9.58;68.81
19761;BME280;10039;42.632;23.408;2023-02-25T07:40:24;94126.97;;;9.47;67.58
19761;BME280;10039;42.632;23.408;2023-02-25T07:42:51;94128.59;;;9.57;67.49
19761;BME280;10039;42.632;23.408;2023-02-25T07:45:17;94116.25;;;9.63;66.71
19761;BME280;10039;42.632;23.408;2023-02-25T07:47:42;94100.91;;;9.67;66.12
19761;BME280;10039;42.632;23.408;2023-02-25T07:50:09;94118.25;;;9.84;66.45
19761;BME280;10039;42.632;23.408;2023-02-25T07:52:35;94121.03;;;9.93;65.64
19761;BME280;10039;42.632;23.408;2023-02-25T07:55:02;94120.00;;;10.03;65.13
19761;BME280;10039;42.632;23.408;2023-02-25T07:57:28;94114.44;;;10.10;64.71
19761;BME280;10039;42.632;23.408;2023-02-25T07:59:53;94098.69;;;10.15;64.15
19761;BME280;10039;42.632;23.408;2023-02-25T08:02:18;94101.44;;;10.12;64.13
19761;BME280;10039;42.632;23.408;2023-02-25T08:04:45;94100.69;;;10.11;64.27
19761;BME280;10039;42.632;23.408;2023-02-25T08:07:10;94084.03;;;10.20;63.55
19761;BME280;10039;42.632;23.408;2023-02-25T08:09:36;94102.59;;;10.23;63.48
19761;BME280;10039;42.632;23.408;2023-02-25T08:12:01;94075.72;;;10.30;63.63
19761;BME280;10039;42.632;23.408;2023-02-25T08:14:27;94094.59;;;10.23;63.59
19761;BME280;10039;42.632;23.408;2023-02-25T08:16:55;94094.28;;;10.34;63.68
19761;BME280;10039;42.632;23.408;2023-02-25T08:19:21;94090.94;;;10.42;63.22
19761;BME280;10039;42.632;23.408;2023-02-25T08:21:46;94085.69;;;10.51;63.33
19761;BME280;10039;42.632;23.408;2023-02-25T08:24:12;94082.28;;;10.51;63.23
19761;BME280;10039;42.632;23.408;2023-02-25T08:26:37;94083.22;;;10.57;62.60
19761;BME280;10039;42.632;23.408;2023-02-25T08:29:03;94082.19;;;10.42;64.05
19761;BME280;10039;42.632;23.408;2023-02-25T08:31:29;94056.38;;;10.39;63.70
19761;BME280;10039;42.632;23.408;2023-02-25T08:33:54;94081.09;;;10.52;64.14
19761;BME280;10039;42.632;23.408;2023-02-25T08:36:23;94088.00;;;10.62;64.77
19761;BME280;10039;42.632;23.408;2023-02-25T08:38:51;94075.34;;;10.75;64.30
19761;BME280;10039;42.632;23.408;2023-02-25T08:41:19;94075.13;;;10.82;63.16
19761;BME280;10039;42.632;23.408;2023-02-25T08:43:48;94076.78;;;10.88;62.92
19761;BME280;10039;42.632;23.408;2023-02-25T08:46:15;94064.56;;;11.00;62.47
19761;BME280;10039;42.632;23.408;2023-02-25T08:48:40;94048.91;;;11.11;62.25
19761;BME280;10039;42.632;23.408;2023-02-25T08:51:08;94056.28;;;10.98;62.21
19761;BME280;10039;42.632;23.408;2023-02-25T08:53:35;94060.53;;;11.16;62.22
19761;BME280;10039;42.632;23.408;2023-02-25T08:56:02;94054.06;;;11.26;61.97
19761;BME280;10039;42.632;23.408;2023-02-25T08:58:28;94049.22;;;11.13;63.02
19761;BME280;10039;42.632;23.408;2023-02-25T09:00:53;94001.94;;;10.92;61.85
19761;BME280;10039;42.632;23.408;2023-02-25T09:03:22;94037.31;;;11.05;62.48
19761;BME280;10039;42.632;23.408;2023-02-25T09:05:53;94060.75;;;11.31;62.10
19761;BME280;10039;42.632;23.408;2023-02-25T09:08:19;94053.44;;;11.44;62.01
19761;BME280;10039;42.632;23.408;2023-02-25T09:10:45;94058.50;;;11.51;61.36
19761;BME280;10039;42.632;23.408;2023-02-25T09:13:10;94042.09;;;11.61;60.90
19761;BME280;10039;42.632;23.408;2023-02-25T09:15:36;94044.78;;;11.70;60.99
19761;BME280;10039;42.632;23.408;2023-02-25T09:18:02;94034.91;;;11.89;60.78
19761;BME280;10039;42.632;23.408;2023-02-25T09:20:27;94024.56;;;12.00;60.19
19761;BME280;10039;42.632;23.408;2023-02-25T09:22:53;94027.97;;;12.00;59.95
19761;BME280;10039;42.632;23.408;2023-02-25T09:25:19;94029.19;;;12.08;60.23
19761;BME280;10039;42.632;23.408;2023-02-25T09:27:44;94010.00;;;12.01;59.57
19761;BME280;10039;42.632;23.408;2023-02-25T09:30:10;94038.97;;;11.93;60.60
19761;BME280;10039;42.632;23.408;2023-02-25T09:32:36;94018.41;;;11.81;60.73
19761;BME280;10039;42.632;23.408;2023-02-25T09:35:02;94032.44;;;11.94;61.12
19761;BME280;10039;42.632;23.408;2023-02-25T09:37:28;93998.81;;;11.84;60.58
19761;BME280;10039;42.632;23.408;2023-02-25T09:39:53;94005.09;;;12.08;60.67
19761;BME280;10039;42.632;23.408;2023-02-25T09:42:21;93983.69;;;11.99;60.63
19761;BME280;10039;42.632;23.408;2023-02-25T09:44:50;93979.53;;;11.98;61.02
19761;BME280;10039;42.632;23.408;2023-02-25T09:47:31;93998.13;;;12.02;60.63
19761;BME280;10039;42.632;23.408;2023-02-25T09:50:06;93991.72;;;11.99;60.88
19761;BME280;10039;42.632;23.408;2023-02-25T09:52:35;93994.41;;;12.08;60.96
19761;BME280;10039;42.632;23.408;2023-02-25T09:55:14;93981.19;;;12.14;60.64
19761;BME280;10039;42.632;23.408;2023-02-25T09:57:44;93943.28;;;12.06;61.06
19761;BME280;10039;42.632;23.408;2023-02-25T10:00:16;93959.63;;;11.99;61.41
19761;BME280;10039;42.632;23.408;2023-02-25T10:03:23;93953.97;;;11.97;61.86
19761;BME280;10039;42.632;23.408;2023-02-25T10:06:02;93960.81;;;12.07;61.26
19761;BME280;10039;42.632;23.408;2023-02-25T10:08:42;93953.06;;;11.82;62.21
19761;BME280;10039;42.632;23.408;2023-02-25T10:11:16;93978.44;;;11.69;62.36
19761;BME280;10039;42.632;23.408;2023-02-25T10:14:01;93947.41;;;11.71;60.82
19761;BME280;10039;42.632;23.408;2023-02-25T10:25:02;93942.84;;;11.99;59.19
19761;BME280;10039;42.632;23.408;2023-02-25T10:27:40;93932.28;;;12.04;58.54
19761;BME280;10039;42.632;23.408;2023-02-25T10:33:14;93895.59;;;12.40;55.60
19761;BME280;10039;42.632;23.408;2023-02-25T10:35:41;93910.44;;;12.59;53.16
19761;BME280;10039;42.632;23.408;2023-02-25T10:38:09;93902.81;;;12.76;53.45
19761;BME280;10039;42.632;23.408;2023-02-25T10:40:38;93896.84;;;12.90;55.27
19761;BME280;10039;42.632;23.408;2023-02-25T10:43:17;93872.59;;;12.84;55.11
19761;BME280;10039;42.632;23.408;2023-02-25T10:45:46;93891.47;;;12.90;55.81
19761;BME280;10039;42.632;23.408;2023-02-25T10:48:20;93899.94;;;13.06;55.83
19761;BME280;10039;42.632;23.408;2023-02-25T10:51:11;93876.72;;;13.03;56.39
19761;BME280;10039;42.632;23.408;2023-02-25T10:53:38;93876.06;;;13.17;55.04
19761;BME280;10039;42.632;23.408;2023-02-25T10:56:05;93868.22;;;13.05;55.36
19761;BME280;10039;42.632;23.408;2023-02-25T10:58:43;93865.81;;;13.16;54.72
19761;BME280;10039;42.632;23.408;2023-02-25T11:01:14;93853.28;;;13.22;54.40
19761;BME280;10039;42.632;23.408;2023-02-25T11:03:52;93846.78;;;13.14;54.52
19761;BME280;10039;42.632;23.408;2023-02-25T11:06:38;93840.50;;;13.17;54.70
19761;BME280;10039;42.632;23.408;2023-02-25T11:09:26;93845.56;;;13.15;55.21
19761;BME280;10039;42.632;23.408;2023-02-25T11:12:16;93849.97;;;13.27;55.20
19761;BME280;10039;42.632;23.408;2023-02-25T11:14:41;93818.47;;;13.22;52.67
19761;BME280;10039;42.632;23.408;2023-02-25T11:17:18;93838.91;;;13.34;50.97
19761;BME280;10039;42.632;23.408;2023-02-25T11:19:51;93830.72;;;13.37;50.09
19761;BME280;10039;42.632;23.408;2023-02-25T11:22:39;93831.41;;;13.46;50.86
19761;BME280;10039;42.632;23.408;2023-02-25T11:25:16;93830.41;;;13.58;51.25
19761;BME280;10039;42.632;23.408;2023-02-25T11:27:42;93819.53;;;13.62;51.45
19761;BME280;10039;42.632;23.408;2023-02-25T11:30:18;93803.91;;;13.60;51.25
19761;BME280;10039;42.632;23.408;2023-02-25T11:32:48;93810.53;;;13.50;51.91
19761;BME280;10039;42.632;23.408;2023-02-25T11:35:22;93813.88;;;13.37;52.28
19761;BME280;10039;42.632;23.408;2023-02-25T11:37:48;93809.16;;;13.32;52.87
19761;BME280;10039;42.632;23.408;2023-02-25T11:40:26;93812.94;;;13.48;50.67
19761;BME280;10039;42.632;23.408;2023-02-25T11:43:13;93818.28;;;13.48;51.02
19761;BME280;10039;42.632;23.408;2023-02-25T11:45:54;93817.47;;;13.57;48.69
19761;BME280;10039;42.632;23.408;2023-02-25T11:48:27;93816.09;;;13.61;48.11
19761;BME280;10039;42.632;23.408;2023-02-25T11:53:46;93813.78;;;13.92;48.08
19761;BME280;10039;42.632;23.408;2023-02-25T11:56:36;93820.91;;;13.95;47.91
19761;BME280;10039;42.632;23.408;2023-02-25T11:59:27;93824.16;;;13.99;48.55
19761;BME280;10039;42.632;23.408;2023-02-25T12:13:34;93827.66;;;14.14;47.80
19761;BME280;10039;42.632;23.408;2023-02-25T12:41:54;93811.09;;;14.59;46.22
19761;BME280;10039;42.632;23.408;2023-02-25T12:47:47;93793.78;;;14.46;45.46
19761;BME280;10039;42.632;23.408;2023-02-25T12:58:41;93758.84;;;14.74;44.69
19761;BME280;10039;42.632;23.408;2023-02-25T13:04:27;93759.34;;;14.93;44.57
19761;BME280;10039;42.632;23.408;2023-02-25T13:10:15;93755.22;;;15.12;44.15
19761;BME280;10039;42.632;23.408;2023-02-25T13:12:50;93755.34;;;15.23;43.53
19761;BME280;10039;42.632;23.408;2023-02-25T13:21:27;93750.69;;;15.58;42.82
19761;BME280;10039;42.632;23.408;2023-02-25T13:46:01;93726.53;;;16.08;41.91
19761;BME280;10039;42.632;23.408;2023-02-25T13:48:40;93730.09;;;16.25;40.83
19761;BME280;10039;42.632;23.408;2023-02-25T13:57:10;93750.69;;;16.28;41.26
19761;BME280;10039;42.632;23.408;2023-02-25T13:59:47;93730.91;;;16.31;41.02
19761;BME280;10039;42.632;23.408;2023-02-25T14:02:45;93732.78;;;16.25;41.74
19761;BME280;10039;42.632;23.408;2023-02-25T14:10:36;93720.19;;;16.11;41.84
19761;BME280;10039;42.632;23.408;2023-02-25T14:14:11;93715.66;;;16.23;41.59
19761;BME280;10039;42.632;23.408;2023-02-25T14:19:35;93721.66;;;16.12;41.65
19761;BME280;10039;42.632;23.408;2023-02-25T14:24:59;93731.16;;;15.82;42.22
19761;BME280;10039;42.632;23.408;2023-02-25T14:38:32;93713.84;;;15.64;42.38
19761;BME280;10039;42.632;23.408;2023-02-25T14:44:17;93713.16;;;15.49;43.21
19761;BME280;10039;42.632;23.408;2023-02-25T14:46:51;93718.97;;;15.42;43.18
19761;BME280;10039;42.632;23.408;2023-02-25T14:49:25;93699.88;;;15.40;42.87
19761;BME280;10039;42.632;23.408;2023-02-25T14:55:11;93711.84;;;15.39;43.20
19761;BME280;10039;42.632;23.408;2023-02-25T15:10:58;93741.22;;;15.42;43.61
19761;BME280;10039;42.632;23.408;2023-02-25T15:21:42;93736.09;;;15.24;43.01
19761;BME280;10039;42.632;23.408;2023-02-25T15:26:51;93749.22;;;15.37;43.58
19761;BME280;10039;42.632;23.408;2023-02-25T15:34:36;93756.63;;;15.42;43.74
19761;BME280;10039;42.632;23.408;2023-02-25T15:40:40;93741.81;;;15.32;44.17
19761;BME280;10039;42.632;23.408;2023-02-25T15:42:48;93747.47;;;15.34;44.09
19761;BME280;10039;42.632;23.408;2023-02-25T15:53:10;93732.00;;;15.29;44.35
19761;BME280;10039;42.632;23.408;2023-02-25T16:01:40;93728.09;;;15.10;44.03
19761;BME280;10039;42.632;23.408;2023-02-25T16:03:47;93737.03;;;15.21;44.01
19761;BME280;10039;42.632;23.408;2023-02-25T16:06:21;93743.53;;;15.15;43.96
19761;BME280;10039;42.632;23.408;2023-02-25T16:09:14;93750.91;;;15.20;44.56
19761;BME280;10039;42.632;23.408;2023-02-25T16:11:48;93752.13;;;15.19;44.28
19761;BME280;10039;42.632;23.408;2023-02-25T16:14:29;93744.22;;;15.10;44.73
19761;BME280;10039;42.632;23.408;2023-02-25T16:17:31;93724.91;;;15.11;44.38
19761;BME280;10039;42.632;23.408;2023-02-25T16:22:39;93724.31;;;15.02;43.73
19761;BME280;10039;42.632;23.408;2023-02-25T16:25:12;93740.03;;;15.09;44.42
19761;BME280;10039;42.632;23.408;2023-02-25T16:28:07;93751.47;;;15.24;44.65
19761;BME280;10039;42.632;23.408;2023-02-25T16:30:40;93748.31;;;15.25;44.38